createdAt,value
2018-01-31T04:32:35.055Z,7.80
2018-01-31T04:35:09.557Z,7.80
2018-01-31T04:37:43.329Z,7.70
2018-01-31T04:40:16.999Z,7.90
2018-01-31T04:42:50.821Z,7.90
2018-01-31T04:45:25.294Z,8.00
2018-01-31T04:47:59.085Z,8.00
2018-01-31T04:50:32.939Z,8.00
2018-01-31T04:53:06.840Z,8.00
2018-01-31T04:55:40.539Z,8.10
2018-01-31T04:58:36.526Z,8.00
2018-01-31T05:01:10.375Z,8.00
2018-01-31T05:03:44.989Z,7.90
2018-01-31T05:06:18.743Z,7.80
2018-01-31T05:08:52.611Z,7.80
2018-01-31T05:11:26.372Z,7.80
2018-01-31T05:14:00.932Z,7.80
2018-01-31T05:16:34.687Z,7.80
2018-01-31T05:19:09.140Z,7.90
2018-01-31T05:21:42.935Z,7.90
2018-01-31T05:24:17.505Z,7.90
2018-01-31T05:26:51.188Z,7.90
2018-01-31T05:29:25.807Z,8.00
2018-01-31T05:31:59.609Z,7.90
2018-01-31T05:34:34.215Z,8.00
2018-01-31T05:37:08.139Z,8.00
2018-01-31T05:39:41.999Z,8.00
2018-01-31T05:42:15.862Z,8.00
2018-01-31T05:44:50.401Z,8.00
2018-01-31T05:47:24.167Z,8.00
2018-01-31T05:49:58.715Z,8.00
2018-01-31T05:52:32.527Z,8.00
2018-01-31T05:55:06.347Z,8.00
2018-01-31T05:57:40.132Z,8.00
2018-01-31T06:00:14.860Z,8.00
2018-01-31T06:02:49.866Z,7.90
2018-01-31T06:05:23.707Z,7.90
2018-01-31T06:07:59.604Z,7.80
2018-01-31T06:10:33.347Z,7.80
2018-01-31T06:13:07.072Z,7.80
2018-01-31T06:15:40.667Z,7.90
2018-01-31T06:18:15.232Z,7.90
2018-01-31T06:20:49.025Z,7.80
2018-01-31T06:23:23.513Z,7.90
2018-01-31T06:25:57.411Z,7.80
2018-01-31T06:28:31.356Z,7.90
2018-01-31T06:31:06.131Z,7.80
2018-01-31T06:33:40.609Z,7.90
2018-01-31T06:36:14.395Z,7.90
2018-01-31T06:38:48.196Z,8.00
2018-01-31T06:41:21.959Z,8.00
2018-01-31T06:43:55.799Z,8.00
2018-01-31T06:46:30.212Z,8.10
2018-01-31T06:49:04.770Z,8.20
2018-01-31T06:51:39.583Z,8.30
2018-01-31T06:54:13.207Z,8.20
2018-01-31T06:56:47.031Z,8.30
2018-01-31T06:59:22.422Z,8.30
2018-01-31T07:01:57.050Z,8.20
2018-01-31T07:04:31.686Z,8.20
2018-01-31T07:07:05.416Z,8.20
2018-01-31T07:09:39.208Z,8.30
2018-01-31T07:12:12.951Z,8.20
2018-01-31T07:14:47.512Z,8.20
2018-01-31T07:17:22.496Z,8.20
2018-01-31T07:19:56.383Z,8.20
2018-01-31T07:22:30.094Z,8.20
2018-01-31T07:25:03.903Z,8.30
2018-01-31T07:27:37.716Z,8.20
2018-01-31T07:30:11.528Z,8.30
2018-01-31T07:32:45.315Z,8.30
2018-01-31T07:35:19.846Z,8.30
2018-01-31T07:37:53.525Z,8.30
2018-01-31T07:40:28.059Z,8.30
2018-01-31T07:43:01.828Z,8.30
2018-01-31T07:45:35.661Z,8.30
2018-01-31T07:48:09.348Z,8.30
2018-01-31T07:50:43.195Z,8.40
2018-01-31T07:53:16.967Z,8.40
2018-01-31T07:55:50.758Z,8.40
2018-01-31T07:58:25.195Z,8.40
2018-01-31T08:00:59.062Z,8.40
2018-01-31T08:03:33.629Z,8.40
2018-01-31T08:06:07.463Z,8.50
2018-01-31T08:08:41.178Z,8.50
2018-01-31T08:11:15.006Z,8.50
2018-01-31T08:13:48.839Z,8.50
2018-01-31T08:16:22.664Z,8.50
2018-01-31T08:18:56.387Z,8.60
2018-01-31T08:21:30.161Z,8.60
2018-01-31T08:24:04.607Z,8.70
2018-01-31T08:26:38.299Z,8.60
2018-01-31T08:29:12.152Z,8.60
2018-01-31T08:31:46.012Z,8.60
2018-01-31T08:34:19.695Z,8.60
2018-01-31T08:36:53.536Z,8.60
2018-01-31T08:39:27.261Z,8.60
2018-01-31T08:42:01.884Z,8.50
2018-01-31T08:44:35.575Z,8.50
2018-01-31T08:47:09.584Z,8.50
2018-01-31T08:49:43.435Z,8.40
2018-01-31T08:52:17.988Z,8.50
2018-01-31T08:54:52.129Z,8.50
2018-01-31T08:57:26.010Z,8.60
2018-01-31T08:59:59.883Z,8.70
2018-01-31T09:02:33.756Z,8.70
2018-01-31T09:05:08.371Z,8.80
2018-01-31T09:07:42.192Z,8.70
2018-01-31T09:10:16.040Z,8.90
2018-01-31T09:12:51.006Z,9.00
2018-01-31T09:15:24.612Z,9.10
2018-01-31T09:17:58.331Z,9.20
2018-01-31T09:20:32.016Z,9.10
2018-01-31T09:23:05.759Z,9.00
2018-01-31T09:25:40.319Z,9.10
2018-01-31T09:28:14.436Z,9.10
2018-01-31T09:30:48.184Z,9.10
2018-01-31T09:33:21.854Z,9.00
2018-01-31T09:35:56.404Z,8.90
2018-01-31T09:38:30.096Z,8.90
2018-01-31T09:41:03.962Z,9.00
2018-01-31T09:43:37.782Z,9.00
2018-01-31T09:46:11.547Z,9.00
2018-01-31T09:48:45.287Z,9.10
2018-01-31T09:51:19.068Z,9.00
2018-01-31T09:53:52.699Z,9.00
2018-01-31T09:56:26.563Z,9.00
2018-01-31T09:59:00.359Z,9.20
2018-01-31T10:01:35.343Z,9.30
2018-01-31T10:04:09.904Z,9.50
2018-01-31T10:06:44.720Z,9.50
2018-01-31T10:09:18.560Z,9.50
2018-01-31T10:11:52.255Z,9.60
2018-01-31T10:14:26.662Z,9.70
2018-01-31T10:17:00.509Z,9.70
2018-01-31T10:19:35.067Z,10.00
2018-01-31T10:22:08.887Z,10.00
2018-01-31T10:24:42.665Z,10.10
2018-01-31T10:27:16.315Z,10.00
2018-01-31T10:29:50.203Z,10.10
2018-01-31T10:32:23.936Z,10.10
2018-01-31T10:34:58.615Z,9.90
2018-01-31T10:37:32.754Z,9.90
2018-01-31T10:40:07.129Z,10.00
2018-01-31T10:42:41.608Z,9.90
2018-01-31T10:45:15.296Z,9.90
2018-01-31T10:47:48.951Z,9.90
2018-01-31T10:50:23.424Z,9.80
2018-01-31T10:52:58.028Z,9.80
2018-01-31T10:57:28.722Z,9.90
2018-01-31T10:58:07.219Z,9.80
2018-01-31T11:00:41.031Z,9.80
2018-01-31T11:03:15.849Z,10.00
2018-01-31T11:05:49.639Z,10.00
2018-01-31T11:08:24.256Z,10.00
2018-01-31T11:10:57.980Z,10.00
2018-01-31T11:13:33.420Z,10.10
2018-01-31T11:16:07.210Z,10.10
2018-01-31T11:18:40.919Z,10.10
2018-01-31T11:21:15.439Z,10.10
2018-01-31T11:23:49.280Z,10.10
2018-01-31T11:26:23.064Z,9.90
2018-01-31T11:28:56.848Z,10.00
2018-01-31T11:31:30.480Z,10.10
2018-01-31T11:34:04.632Z,10.20
2018-01-31T11:36:38.494Z,10.10
2018-01-31T11:39:13.011Z,10.20
2018-01-31T11:41:47.662Z,10.20
2018-01-31T11:44:21.353Z,10.20
2018-01-31T11:46:55.184Z,10.20
2018-01-31T11:49:30.488Z,10.30
2018-01-31T11:52:05.108Z,10.40
2018-01-31T11:54:38.928Z,10.40
2018-01-31T11:57:12.595Z,10.50
2018-01-31T11:59:46.436Z,10.50
2018-01-31T12:02:20.188Z,10.50
2018-01-31T12:04:55.067Z,10.50
2018-01-31T12:07:30.091Z,10.40
2018-01-31T12:10:05.447Z,10.50
2018-01-31T12:12:50.880Z,10.70
2018-01-31T12:15:24.891Z,10.60
2018-01-31T12:17:58.664Z,10.80
2018-01-31T12:20:45.042Z,10.70
2018-01-31T12:23:34.169Z,10.60
2018-01-31T12:26:23.524Z,10.50
2018-01-31T12:29:12.241Z,10.40
2018-01-31T12:32:00.344Z,10.40
2018-01-31T12:34:45.923Z,10.50
2018-01-31T12:37:31.623Z,10.50
2018-01-31T12:40:04.907Z,10.50
2018-01-31T12:42:39.056Z,10.50
2018-01-31T12:45:12.339Z,10.50
2018-01-31T12:47:52.970Z,10.50
2018-01-31T12:50:39.312Z,10.60
2018-01-31T12:53:25.060Z,10.60
2018-01-31T12:56:10.934Z,10.70
2018-01-31T12:58:50.851Z,10.70
2018-01-31T13:04:49.080Z,10.80
2018-01-31T13:07:44.564Z,10.90
2018-01-31T13:10:30.063Z,11.00
2018-01-31T13:13:15.842Z,11.10
2018-01-31T13:16:04.492Z,11.20
2018-01-31T13:18:51.891Z,11.10
2018-01-31T13:35:08.051Z,11.00
2018-01-31T13:37:59.755Z,11.00
2018-01-31T13:40:45.688Z,10.90
2018-01-31T13:43:33.811Z,10.90
2018-01-31T13:46:20.954Z,11.00
2018-01-31T13:49:06.443Z,11.00
2018-01-31T13:51:52.316Z,10.90
2018-01-31T13:54:38.933Z,11.00
2018-01-31T13:57:30.505Z,11.10
2018-01-31T14:00:21.262Z,11.10
2018-01-31T14:06:24.155Z,11.40
2018-01-31T14:12:33.601Z,11.50
2018-01-31T14:15:40.530Z,11.00
2018-01-31T14:18:38.143Z,11.00
2018-01-31T14:21:31.077Z,11.00
2018-01-31T14:24:20.491Z,10.90
2018-01-31T14:27:17.965Z,10.80
2018-01-31T14:30:07.722Z,10.80
2018-01-31T14:32:57.799Z,10.70
2018-01-31T14:38:36.650Z,10.80
2018-01-31T14:41:19.699Z,10.90
2018-01-31T14:44:02.392Z,11.00
2018-01-31T14:46:40.387Z,10.80
2018-01-31T14:49:19.721Z,10.80
2018-01-31T14:57:49.775Z,10.70
2018-01-31T15:00:31.483Z,10.70
2018-01-31T15:05:56.130Z,10.70
2018-01-31T15:08:32.863Z,10.70
2018-01-31T15:14:13.446Z,10.70
2018-01-31T15:16:54.438Z,10.70
2018-01-31T15:19:40.118Z,10.70
2018-01-31T15:22:24.872Z,10.70
2018-01-31T15:25:07.068Z,10.70
2018-01-31T15:27:57.871Z,10.70
2018-01-31T15:30:37.411Z,10.70
2018-01-31T15:33:28.627Z,10.70
2018-01-31T15:36:08.783Z,10.70
2018-01-31T15:38:49.849Z,10.70
2018-01-31T15:41:31.339Z,10.60
2018-01-31T15:52:51.489Z,10.50
2018-01-31T15:56:29.298Z,10.50
2018-01-31T16:01:54.327Z,10.50
2018-01-31T16:04:36.092Z,10.40
2018-01-31T16:07:20.480Z,10.40
2018-01-31T16:10:01.540Z,10.40
2018-01-31T16:15:31.065Z,10.40
2018-01-31T16:18:12.937Z,10.40
2018-01-31T16:21:07.733Z,10.30
2018-01-31T16:23:48.607Z,10.30
2018-01-31T16:29:30.145Z,10.30
2018-01-31T16:32:21.012Z,10.30
2018-01-31T16:35:01.424Z,10.30
2018-01-31T16:37:40.195Z,10.30
2018-01-31T16:40:23.111Z,10.30
2018-01-31T16:43:14.016Z,10.30
2018-01-31T16:45:52.481Z,10.30
2018-01-31T16:48:40.900Z,10.30
2018-01-31T16:51:23.283Z,10.30
2018-01-31T16:54:03.027Z,10.30
2018-01-31T16:56:45.363Z,10.30
2018-01-31T16:59:26.610Z,10.30
2018-01-31T17:02:03.743Z,10.20
2018-01-31T17:04:45.594Z,10.30
2018-01-31T17:07:21.299Z,10.30
2018-01-31T17:10:02.265Z,10.30
2018-01-31T17:15:43.126Z,10.40
2018-01-31T17:18:27.406Z,10.30
2018-01-31T17:21:07.326Z,10.40
2018-01-31T17:23:48.750Z,10.40
2018-01-31T17:26:27.020Z,10.50
2018-01-31T17:29:07.584Z,10.50
2018-01-31T17:31:52.310Z,10.50
2018-01-31T17:34:34.585Z,10.40
2018-01-31T17:37:14.805Z,10.30
2018-01-31T17:39:56.803Z,10.10
2018-01-31T17:42:40.131Z,10.00
2018-01-31T17:45:29.295Z,9.80
2018-01-31T17:48:07.980Z,9.60
2018-01-31T17:50:48.069Z,9.50
2018-01-31T17:53:34.329Z,9.50
2018-01-31T17:56:19.331Z,9.50
2018-01-31T17:59:01.415Z,9.40
2018-01-31T18:01:41.284Z,9.40
2018-01-31T18:04:22.104Z,9.30
2018-01-31T18:07:03.332Z,9.30
2018-01-31T18:09:48.153Z,9.20
2018-01-31T18:12:35.380Z,9.20
2018-01-31T18:15:10.146Z,9.10
2018-01-31T18:17:54.356Z,9.10
2018-01-31T18:20:38.131Z,9.10
2018-01-31T18:23:20.746Z,9.10
2018-01-31T18:25:58.881Z,9.00
2018-01-31T18:31:39.801Z,8.80
2018-01-31T18:34:15.901Z,8.80
2018-01-31T18:37:03.226Z,8.80
2018-01-31T18:39:43.275Z,8.80
2018-01-31T18:42:23.658Z,8.80
2018-01-31T18:47:47.993Z,8.70
2018-01-31T18:50:43.043Z,8.70
2018-01-31T18:53:26.610Z,8.60
2018-01-31T18:56:05.246Z,8.60
2018-01-31T18:58:46.486Z,8.50
2018-01-31T19:01:27.127Z,8.50
2018-01-31T19:07:07.327Z,8.30
2018-01-31T19:09:53.056Z,8.20
2018-01-31T19:12:38.890Z,8.20
2018-01-31T19:15:21.910Z,8.20
2018-01-31T19:18:03.277Z,8.10
2018-01-31T19:21:01.835Z,8.00
2018-01-31T19:23:52.278Z,8.00
2018-01-31T19:26:38.836Z,8.00
2018-01-31T19:29:25.021Z,8.00
2018-01-31T19:32:08.041Z,7.90
2018-01-31T20:17:02.622Z,7.50
2018-01-31T20:19:36.576Z,7.50
2018-01-31T20:22:10.334Z,7.50
2018-01-31T20:24:44.962Z,7.40
2018-01-31T20:27:19.508Z,7.40
2018-01-31T20:29:53.208Z,7.40
2018-01-31T20:32:27.104Z,7.40
2018-01-31T20:35:00.890Z,7.30
2018-01-31T20:37:34.784Z,7.30
2018-01-31T20:40:09.430Z,7.40
2018-01-31T20:42:43.282Z,7.30
2018-01-31T20:45:17.820Z,7.30
2018-01-31T20:47:51.692Z,7.30
2018-01-31T20:50:25.413Z,7.20
2018-01-31T20:52:59.259Z,7.20
2018-01-31T20:55:33.165Z,7.20
2018-01-31T20:58:07.105Z,7.20
2018-01-31T21:00:41.685Z,7.10
2018-01-31T21:03:16.529Z,7.10
2018-01-31T21:05:50.343Z,7.10
2018-01-31T21:08:25.600Z,7.10
2018-01-31T21:11:00.109Z,7.10
2018-01-31T21:13:33.996Z,7.10
2018-01-31T21:16:07.780Z,7.00
2018-01-31T21:18:42.585Z,7.00
2018-01-31T21:21:16.276Z,7.00
2018-01-31T21:23:50.248Z,7.00
2018-01-31T21:26:24.209Z,6.90
2018-01-31T21:28:58.832Z,6.90
2018-01-31T21:31:32.708Z,6.90
2018-01-31T21:34:07.168Z,6.90
2018-01-31T21:36:40.971Z,6.90
2018-01-31T21:39:14.901Z,6.90
2018-01-31T21:41:49.476Z,6.90
2018-01-31T21:44:23.192Z,6.90
2018-01-31T21:46:56.976Z,6.90
2018-01-31T21:49:30.813Z,6.90
2018-01-31T21:52:04.613Z,6.90
2018-01-31T21:54:39.123Z,6.90
2018-01-31T21:57:13.006Z,6.90
2018-01-31T21:59:46.697Z,6.90
